sensor_id;sensor_type;location;lat;lon;timestamp;P1;durP1;ratioP1;P2;durP2;ratioP2
22648;SDS011;11491;41.942;24.220;2023-06-26T00:00:30;15.00;;;10.32;;
22648;SDS011;11491;41.942;24.220;2023-06-26T00:02:59;18.58;;;10.65;;
22648;SDS011;11491;41.942;24.220;2023-06-26T00:05:26;18.60;;;10.55;;
22648;SDS011;11491;41.942;24.220;2023-06-26T00:07:55;16.63;;;10.50;;
22648;SDS011;11491;41.942;24.220;2023-06-26T00:10:25;17.15;;;12.13;;
22648;SDS011;11491;41.942;24.220;2023-06-26T00:12:52;14.65;;;11.25;;
22648;SDS011;11491;41.942;24.220;2023-06-26T00:15:19;17.38;;;11.30;;
22648;SDS011;11491;41.942;24.220;2023-06-26T00:17:45;18.20;;;9.68;;
22648;SDS011;11491;41.942;24.220;2023-06-26T00:20:14;16.10;;;9.43;;
22648;SDS011;11491;41.942;24.220;2023-06-26T00:22:43;16.30;;;9.35;;
22648;SDS011;11491;41.942;24.220;2023-06-26T00:25:10;14.63;;;9.40;;
22648;SDS011;11491;41.942;24.220;2023-06-26T00:27:37;17.73;;;10.15;;
22648;SDS011;11491;41.942;24.220;2023-06-26T00:30:04;14.73;;;9.32;;
22648;SDS011;11491;41.942;24.220;2023-06-26T00:32:31;14.32;;;8.73;;
22648;SDS011;11491;41.942;24.220;2023-06-26T00:34:58;13.63;;;9.13;;
22648;SDS011;11491;41.942;24.220;2023-06-26T00:37:26;16.35;;;9.75;;
22648;SDS011;11491;41.942;24.220;2023-06-26T00:39:52;15.10;;;10.20;;
22648;SDS011;11491;41.942;24.220;2023-06-26T00:42:19;13.38;;;9.10;;
22648;SDS011;11491;41.942;24.220;2023-06-26T00:44:46;14.98;;;9.50;;
22648;SDS011;11491;41.942;24.220;2023-06-26T00:47:14;14.70;;;8.85;;
22648;SDS011;11491;41.942;24.220;2023-06-26T00:49:42;17.45;;;8.70;;
22648;SDS011;11491;41.942;24.220;2023-06-26T00:52:09;15.90;;;8.23;;
22648;SDS011;11491;41.942;24.220;2023-06-26T00:54:37;11.98;;;7.90;;
22648;SDS011;11491;41.942;24.220;2023-06-26T00:57:04;13.02;;;7.95;;
22648;SDS011;11491;41.942;24.220;2023-06-26T00:59:31;17.55;;;9.30;;
22648;SDS011;11491;41.942;24.220;2023-06-26T01:01:57;15.07;;;8.45;;
22648;SDS011;11491;41.942;24.220;2023-06-26T01:04:24;17.70;;;8.80;;
22648;SDS011;11491;41.942;24.220;2023-06-26T01:06:52;20.00;;;8.75;;
22648;SDS011;11491;41.942;24.220;2023-06-26T01:09:20;16.58;;;8.98;;
22648;SDS011;11491;41.942;24.220;2023-06-26T01:11:50;13.23;;;8.80;;
22648;SDS011;11491;41.942;24.220;2023-06-26T01:14:17;14.73;;;8.48;;
22648;SDS011;11491;41.942;24.220;2023-06-26T01:16:44;15.45;;;8.63;;
22648;SDS011;11491;41.942;24.220;2023-06-26T01:19:13;16.17;;;8.23;;
22648;SDS011;11491;41.942;24.220;2023-06-26T01:21:50;13.85;;;7.88;;
22648;SDS011;11491;41.942;24.220;2023-06-26T01:24:22;13.82;;;8.20;;
22648;SDS011;11491;41.942;24.220;2023-06-26T01:26:53;14.30;;;8.85;;
22648;SDS011;11491;41.942;24.220;2023-06-26T01:29:20;13.57;;;8.30;;
22648;SDS011;11491;41.942;24.220;2023-06-26T01:31:49;13.15;;;8.93;;
22648;SDS011;11491;41.942;24.220;2023-06-26T01:34:16;12.43;;;8.52;;
22648;SDS011;11491;41.942;24.220;2023-06-26T01:36:44;13.38;;;8.40;;
22648;SDS011;11491;41.942;24.220;2023-06-26T01:39:14;12.45;;;8.15;;
22648;SDS011;11491;41.942;24.220;2023-06-26T01:41:42;15.57;;;8.68;;
22648;SDS011;11491;41.942;24.220;2023-06-26T01:44:14;14.55;;;8.45;;
22648;SDS011;11491;41.942;24.220;2023-06-26T01:46:53;18.13;;;8.73;;
22648;SDS011;11491;41.942;24.220;2023-06-26T01:49:29;18.63;;;9.13;;
22648;SDS011;11491;41.942;24.220;2023-06-26T01:52:04;15.88;;;9.13;;
22648;SDS011;11491;41.942;24.220;2023-06-26T01:54:41;14.75;;;8.68;;
22648;SDS011;11491;41.942;24.220;2023-06-26T01:57:13;12.75;;;9.07;;
22648;SDS011;11491;41.942;24.220;2023-06-26T01:59:45;15.07;;;9.40;;
22648;SDS011;11491;41.942;24.220;2023-06-26T02:02:13;15.75;;;9.18;;
22648;SDS011;11491;41.942;24.220;2023-06-26T02:04:41;16.17;;;9.73;;
22648;SDS011;11491;41.942;24.220;2023-06-26T02:07:07;15.30;;;10.60;;
22648;SDS011;11491;41.942;24.220;2023-06-26T02:09:35;15.90;;;10.30;;
22648;SDS011;11491;41.942;24.220;2023-06-26T02:12:02;18.02;;;10.82;;
22648;SDS011;11491;41.942;24.220;2023-06-26T02:14:29;18.42;;;10.48;;
22648;SDS011;11491;41.942;24.220;2023-06-26T02:16:58;14.70;;;10.32;;
22648;SDS011;11491;41.942;24.220;2023-06-26T02:19:25;16.98;;;9.77;;
22648;SDS011;11491;41.942;24.220;2023-06-26T02:21:52;15.27;;;9.32;;
22648;SDS011;11491;41.942;24.220;2023-06-26T02:24:19;15.13;;;9.25;;
22648;SDS011;11491;41.942;24.220;2023-06-26T02:26:46;10.88;;;7.95;;
22648;SDS011;11491;41.942;24.220;2023-06-26T02:29:14;17.17;;;9.25;;
22648;SDS011;11491;41.942;24.220;2023-06-26T02:31:41;15.43;;;9.40;;
22648;SDS011;11491;41.942;24.220;2023-06-26T02:34:09;14.48;;;9.52;;
22648;SDS011;11491;41.942;24.220;2023-06-26T02:36:36;18.50;;;9.90;;
22648;SDS011;11491;41.942;24.220;2023-06-26T02:39:03;18.55;;;10.63;;
22648;SDS011;11491;41.942;24.220;2023-06-26T02:41:29;17.08;;;9.68;;
22648;SDS011;11491;41.942;24.220;2023-06-26T02:43:56;18.48;;;10.10;;
22648;SDS011;11491;41.942;24.220;2023-06-26T02:46:23;15.82;;;9.48;;
22648;SDS011;11491;41.942;24.220;2023-06-26T02:48:50;16.40;;;9.55;;
22648;SDS011;11491;41.942;24.220;2023-06-26T02:51:18;13.43;;;9.25;;
22648;SDS011;11491;41.942;24.220;2023-06-26T02:53:45;16.45;;;9.60;;
22648;SDS011;11491;41.942;24.220;2023-06-26T02:56:11;14.10;;;8.98;;
22648;SDS011;11491;41.942;24.220;2023-06-26T02:58:38;15.60;;;8.75;;
22648;SDS011;11491;41.942;24.220;2023-06-26T03:01:05;14.13;;;9.35;;
22648;SDS011;11491;41.942;24.220;2023-06-26T03:03:31;14.38;;;9.55;;
22648;SDS011;11491;41.942;24.220;2023-06-26T03:06:05;16.85;;;9.40;;
22648;SDS011;11491;41.942;24.220;2023-06-26T03:08:36;14.73;;;10.15;;
22648;SDS011;11491;41.942;24.220;2023-06-26T03:11:03;18.02;;;10.27;;
22648;SDS011;11491;41.942;24.220;2023-06-26T03:13:30;13.10;;;9.75;;
22648;SDS011;11491;41.942;24.220;2023-06-26T03:15:57;18.17;;;10.25;;
22648;SDS011;11491;41.942;24.220;2023-06-26T03:18:23;12.73;;;9.75;;
22648;SDS011;11491;41.942;24.220;2023-06-26T03:20:50;15.32;;;9.70;;
22648;SDS011;11491;41.942;24.220;2023-06-26T03:23:19;15.68;;;9.55;;
22648;SDS011;11491;41.942;24.220;2023-06-26T03:25:47;15.35;;;9.05;;
22648;SDS011;11491;41.942;24.220;2023-06-26T03:28:14;17.45;;;9.70;;
22648;SDS011;11491;41.942;24.220;2023-06-26T03:30:40;15.07;;;10.75;;
22648;SDS011;11491;41.942;24.220;2023-06-26T03:33:07;22.10;;;10.07;;
22648;SDS011;11491;41.942;24.220;2023-06-26T03:35:34;13.20;;;9.32;;
22648;SDS011;11491;41.942;24.220;2023-06-26T03:38:01;14.63;;;10.38;;
22648;SDS011;11491;41.942;24.220;2023-06-26T03:40:30;18.17;;;11.27;;
22648;SDS011;11491;41.942;24.220;2023-06-26T03:42:59;21.65;;;13.40;;
22648;SDS011;11491;41.942;24.220;2023-06-26T03:45:25;16.42;;;11.23;;
22648;SDS011;11491;41.942;24.220;2023-06-26T03:47:52;18.42;;;10.38;;
22648;SDS011;11491;41.942;24.220;2023-06-26T03:50:19;17.08;;;10.73;;
22648;SDS011;11491;41.942;24.220;2023-06-26T03:52:46;23.05;;;11.43;;
22648;SDS011;11491;41.942;24.220;2023-06-26T03:55:12;18.50;;;10.90;;
22648;SDS011;11491;41.942;24.220;2023-06-26T03:57:39;18.85;;;10.55;;
22648;SDS011;11491;41.942;24.220;2023-06-26T04:00:08;23.70;;;11.20;;
22648;SDS011;11491;41.942;24.220;2023-06-26T04:02:38;16.88;;;10.88;;
22648;SDS011;11491;41.942;24.220;2023-06-26T04:05:05;20.00;;;11.57;;
22648;SDS011;11491;41.942;24.220;2023-06-26T04:07:32;19.80;;;10.70;;
22648;SDS011;11491;41.942;24.220;2023-06-26T04:09:59;19.80;;;11.10;;
22648;SDS011;11491;41.942;24.220;2023-06-26T04:12:26;18.70;;;10.90;;
22648;SDS011;11491;41.942;24.220;2023-06-26T04:14:53;14.80;;;10.32;;
22648;SDS011;11491;41.942;24.220;2023-06-26T04:17:21;14.10;;;10.75;;
22648;SDS011;11491;41.942;24.220;2023-06-26T04:19:48;23.48;;;12.65;;
22648;SDS011;11491;41.942;24.220;2023-06-26T04:22:14;22.92;;;12.73;;
22648;SDS011;11491;41.942;24.220;2023-06-26T04:24:41;20.15;;;10.40;;
22648;SDS011;11491;41.942;24.220;2023-06-26T04:27:08;14.77;;;10.90;;
22648;SDS011;11491;41.942;24.220;2023-06-26T04:29:36;15.07;;;10.40;;
22648;SDS011;11491;41.942;24.220;2023-06-26T04:32:02;14.05;;;10.50;;
22648;SDS011;11491;41.942;24.220;2023-06-26T04:34:31;16.00;;;10.32;;
22648;SDS011;11491;41.942;24.220;2023-06-26T04:37:00;16.70;;;11.60;;
22648;SDS011;11491;41.942;24.220;2023-06-26T04:39:29;22.38;;;12.48;;
22648;SDS011;11491;41.942;24.220;2023-06-26T04:41:56;21.23;;;12.20;;
22648;SDS011;11491;41.942;24.220;2023-06-26T04:44:23;23.05;;;12.32;;
22648;SDS011;11491;41.942;24.220;2023-06-26T04:46:50;17.17;;;11.38;;
22648;SDS011;11491;41.942;24.220;2023-06-26T04:49:18;16.08;;;10.85;;
22648;SDS011;11491;41.942;24.220;2023-06-26T04:51:46;23.42;;;11.93;;
22648;SDS011;11491;41.942;24.220;2023-06-26T04:54:13;24.15;;;12.32;;
22648;SDS011;11491;41.942;24.220;2023-06-26T04:56:40;18.58;;;11.95;;
22648;SDS011;11491;41.942;24.220;2023-06-26T04:59:08;22.10;;;12.57;;
22648;SDS011;11491;41.942;24.220;2023-06-26T05:01:38;21.08;;;13.43;;
22648;SDS011;11491;41.942;24.220;2023-06-26T05:04:05;22.38;;;12.65;;
22648;SDS011;11491;41.942;24.220;2023-06-26T05:06:32;20.42;;;13.00;;
22648;SDS011;11491;41.942;24.220;2023-06-26T05:09:02;19.92;;;12.55;;
22648;SDS011;11491;41.942;24.220;2023-06-26T05:11:28;24.38;;;13.50;;
22648;SDS011;11491;41.942;24.220;2023-06-26T05:13:55;24.63;;;13.45;;
22648;SDS011;11491;41.942;24.220;2023-06-26T05:16:22;22.15;;;13.25;;
22648;SDS011;11491;41.942;24.220;2023-06-26T05:18:49;23.58;;;13.07;;
22648;SDS011;11491;41.942;24.220;2023-06-26T05:21:16;24.88;;;13.68;;
22648;SDS011;11491;41.942;24.220;2023-06-26T05:23:43;22.80;;;12.82;;
22648;SDS011;11491;41.942;24.220;2023-06-26T05:26:13;21.92;;;15.82;;
22648;SDS011;11491;41.942;24.220;2023-06-26T05:28:40;24.35;;;17.05;;
22648;SDS011;11491;41.942;24.220;2023-06-26T05:31:09;22.85;;;13.88;;
22648;SDS011;11491;41.942;24.220;2023-06-26T05:33:36;22.15;;;12.82;;
22648;SDS011;11491;41.942;24.220;2023-06-26T05:36:05;22.05;;;13.02;;
22648;SDS011;11491;41.942;24.220;2023-06-26T05:38:33;19.13;;;13.07;;
22648;SDS011;11491;41.942;24.220;2023-06-26T05:41:01;18.98;;;12.23;;
22648;SDS011;11491;41.942;24.220;2023-06-26T05:43:29;16.17;;;9.40;;
22648;SDS011;11491;41.942;24.220;2023-06-26T05:45:56;14.85;;;9.88;;
22648;SDS011;11491;41.942;24.220;2023-06-26T05:48:23;17.10;;;9.30;;
22648;SDS011;11491;41.942;24.220;2023-06-26T05:50:50;13.55;;;10.07;;
22648;SDS011;11491;41.942;24.220;2023-06-26T05:53:18;12.05;;;9.52;;
22648;SDS011;11491;41.942;24.220;2023-06-26T05:55:45;11.23;;;8.50;;
22648;SDS011;11491;41.942;24.220;2023-06-26T05:58:13;14.27;;;8.82;;
22648;SDS011;11491;41.942;24.220;2023-06-26T06:00:43;14.13;;;9.75;;
22648;SDS011;11491;41.942;24.220;2023-06-26T06:03:10;13.77;;;10.18;;
22648;SDS011;11491;41.942;24.220;2023-06-26T06:05:37;15.82;;;11.07;;
22648;SDS011;11491;41.942;24.220;2023-06-26T06:08:04;10.50;;;9.10;;
22648;SDS011;11491;41.942;24.220;2023-06-26T06:10:30;12.65;;;9.13;;
22648;SDS011;11491;41.942;24.220;2023-06-26T06:12:57;12.18;;;9.00;;
22648;SDS011;11491;41.942;24.220;2023-06-26T06:15:24;12.30;;;9.00;;
22648;SDS011;11491;41.942;24.220;2023-06-26T06:17:52;11.10;;;8.05;;
22648;SDS011;11491;41.942;24.220;2023-06-26T06:20:19;13.30;;;9.23;;
22648;SDS011;11491;41.942;24.220;2023-06-26T06:22:46;11.63;;;8.65;;
22648;SDS011;11491;41.942;24.220;2023-06-26T06:25:14;10.02;;;8.18;;
22648;SDS011;11491;41.942;24.220;2023-06-26T06:27:41;11.68;;;7.47;;
22648;SDS011;11491;41.942;24.220;2023-06-26T06:30:08;12.35;;;7.28;;
22648;SDS011;11491;41.942;24.220;2023-06-26T06:32:36;14.85;;;7.95;;
22648;SDS011;11491;41.942;24.220;2023-06-26T06:35:05;11.73;;;7.63;;
22648;SDS011;11491;41.942;24.220;2023-06-26T06:37:35;12.00;;;7.20;;
22648;SDS011;11491;41.942;24.220;2023-06-26T06:40:02;12.55;;;7.22;;
22648;SDS011;11491;41.942;24.220;2023-06-26T06:42:31;10.23;;;6.75;;
22648;SDS011;11491;41.942;24.220;2023-06-26T06:44:58;10.15;;;7.18;;
22648;SDS011;11491;41.942;24.220;2023-06-26T06:47:24;10.50;;;7.22;;
22648;SDS011;11491;41.942;24.220;2023-06-26T06:49:51;9.30;;;7.07;;
22648;SDS011;11491;41.942;24.220;2023-06-26T06:52:20;9.23;;;7.00;;
22648;SDS011;11491;41.942;24.220;2023-06-26T06:54:53;13.30;;;7.63;;
22648;SDS011;11491;41.942;24.220;2023-06-26T06:57:23;11.88;;;6.57;;
22648;SDS011;11491;41.942;24.220;2023-06-26T06:59:51;8.05;;;5.90;;
22648;SDS011;11491;41.942;24.220;2023-06-26T07:02:17;8.50;;;6.35;;
22648;SDS011;11491;41.942;24.220;2023-06-26T07:04:44;8.90;;;6.25;;
22648;SDS011;11491;41.942;24.220;2023-06-26T07:07:11;11.25;;;6.30;;
22648;SDS011;11491;41.942;24.220;2023-06-26T07:09:40;10.23;;;6.53;;
22648;SDS011;11491;41.942;24.220;2023-06-26T07:12:07;8.73;;;6.00;;
22648;SDS011;11491;41.942;24.220;2023-06-26T07:14:34;9.18;;;5.93;;
22648;SDS011;11491;41.942;24.220;2023-06-26T07:17:00;10.23;;;6.22;;
22648;SDS011;11491;41.942;24.220;2023-06-26T07:19:27;8.23;;;6.05;;
22648;SDS011;11491;41.942;24.220;2023-06-26T07:21:54;9.30;;;6.40;;
22648;SDS011;11491;41.942;24.220;2023-06-26T07:24:21;8.27;;;5.97;;
22648;SDS011;11491;41.942;24.220;2023-06-26T07:26:49;10.10;;;6.18;;
22648;SDS011;11491;41.942;24.220;2023-06-26T07:29:16;12.45;;;5.82;;
22648;SDS011;11491;41.942;24.220;2023-06-26T07:31:42;10.00;;;5.57;;
22648;SDS011;11491;41.942;24.220;2023-06-26T07:34:10;9.05;;;5.20;;
22648;SDS011;11491;41.942;24.220;2023-06-26T07:36:37;10.57;;;5.18;;
22648;SDS011;11491;41.942;24.220;2023-06-26T07:39:03;8.43;;;5.13;;
22648;SDS011;11491;41.942;24.220;2023-06-26T07:41:30;7.20;;;5.25;;
22648;SDS011;11491;41.942;24.220;2023-06-26T07:43:58;7.78;;;5.57;;
22648;SDS011;11491;41.942;24.220;2023-06-26T07:46:25;7.95;;;5.20;;
22648;SDS011;11491;41.942;24.220;2023-06-26T07:48:52;8.82;;;4.80;;
22648;SDS011;11491;41.942;24.220;2023-06-26T07:51:19;8.32;;;4.68;;
22648;SDS011;11491;41.942;24.220;2023-06-26T07:53:45;8.93;;;5.45;;
22648;SDS011;11491;41.942;24.220;2023-06-26T07:56:12;8.48;;;5.10;;
22648;SDS011;11491;41.942;24.220;2023-06-26T07:58:39;9.48;;;5.60;;
22648;SDS011;11491;41.942;24.220;2023-06-26T08:01:07;8.05;;;4.65;;
22648;SDS011;11491;41.942;24.220;2023-06-26T08:03:34;8.63;;;4.93;;
22648;SDS011;11491;41.942;24.220;2023-06-26T08:06:01;8.93;;;5.93;;
22648;SDS011;11491;41.942;24.220;2023-06-26T08:08:28;8.63;;;4.85;;
22648;SDS011;11491;41.942;24.220;2023-06-26T08:10:55;6.40;;;5.15;;
22648;SDS011;11491;41.942;24.220;2023-06-26T08:13:21;10.23;;;5.70;;
22648;SDS011;11491;41.942;24.220;2023-06-26T08:15:48;8.35;;;5.53;;
22648;SDS011;11491;41.942;24.220;2023-06-26T08:18:17;7.85;;;6.28;;
22648;SDS011;11491;41.942;24.220;2023-06-26T08:20:44;13.98;;;5.28;;
22648;SDS011;11491;41.942;24.220;2023-06-26T08:23:10;7.50;;;4.93;;
22648;SDS011;11491;41.942;24.220;2023-06-26T08:25:37;10.05;;;4.88;;
22648;SDS011;11491;41.942;24.220;2023-06-26T08:28:04;7.63;;;5.43;;
22648;SDS011;11491;41.942;24.220;2023-06-26T08:30:31;8.30;;;5.72;;
22648;SDS011;11491;41.942;24.220;2023-06-26T08:32:58;6.88;;;5.55;;
22648;SDS011;11491;41.942;24.220;2023-06-26T08:35:26;10.23;;;5.30;;
22648;SDS011;11491;41.942;24.220;2023-06-26T08:37:53;9.13;;;5.15;;
22648;SDS011;11491;41.942;24.220;2023-06-26T08:40:20;8.88;;;5.32;;
22648;SDS011;11491;41.942;24.220;2023-06-26T08:42:47;7.30;;;5.15;;
22648;SDS011;11491;41.942;24.220;2023-06-26T08:45:17;9.88;;;4.78;;
22648;SDS011;11491;41.942;24.220;2023-06-26T08:47:45;8.88;;;5.13;;
22648;SDS011;11491;41.942;24.220;2023-06-26T08:50:18;8.13;;;5.50;;
22648;SDS011;11491;41.942;24.220;2023-06-26T08:52:52;9.65;;;5.72;;
22648;SDS011;11491;41.942;24.220;2023-06-26T08:55:23;13.52;;;5.60;;
22648;SDS011;11491;41.942;24.220;2023-06-26T08:57:53;8.75;;;6.07;;
22648;SDS011;11491;41.942;24.220;2023-06-26T09:00:20;9.43;;;6.03;;
22648;SDS011;11491;41.942;24.220;2023-06-26T09:02:47;6.68;;;5.03;;
22648;SDS011;11491;41.942;24.220;2023-06-26T09:05:14;8.40;;;5.63;;
22648;SDS011;11491;41.942;24.220;2023-06-26T09:07:41;7.60;;;5.47;;
22648;SDS011;11491;41.942;24.220;2023-06-26T09:10:09;12.52;;;5.20;;
22648;SDS011;11491;41.942;24.220;2023-06-26T09:12:36;12.27;;;4.97;;
22648;SDS011;11491;41.942;24.220;2023-06-26T09:15:04;7.60;;;5.38;;
22648;SDS011;11491;41.942;24.220;2023-06-26T09:17:33;7.80;;;5.03;;
22648;SDS011;11491;41.942;24.220;2023-06-26T09:20:04;6.10;;;4.85;;
22648;SDS011;11491;41.942;24.220;2023-06-26T09:22:33;6.80;;;5.35;;
22648;SDS011;11491;41.942;24.220;2023-06-26T09:25:04;7.90;;;5.32;;
22648;SDS011;11491;41.942;24.220;2023-06-26T09:27:33;9.57;;;5.30;;
22648;SDS011;11491;41.942;24.220;2023-06-26T09:30:01;11.02;;;5.03;;
22648;SDS011;11491;41.942;24.220;2023-06-26T09:32:28;9.40;;;5.30;;
22648;SDS011;11491;41.942;24.220;2023-06-26T09:34:55;8.10;;;4.85;;
22648;SDS011;11491;41.942;24.220;2023-06-26T09:37:22;7.75;;;4.93;;
22648;SDS011;11491;41.942;24.220;2023-06-26T09:39:50;10.05;;;5.32;;
22648;SDS011;11491;41.942;24.220;2023-06-26T09:42:17;9.40;;;4.68;;
22648;SDS011;11491;41.942;24.220;2023-06-26T09:44:46;11.75;;;4.90;;
22648;SDS011;11491;41.942;24.220;2023-06-26T09:47:15;5.70;;;4.13;;
22648;SDS011;11491;41.942;24.220;2023-06-26T09:49:43;8.77;;;4.72;;
22648;SDS011;11491;41.942;24.220;2023-06-26T09:52:10;6.00;;;4.53;;
22648;SDS011;11491;41.942;24.220;2023-06-26T09:54:41;9.02;;;4.85;;
22648;SDS011;11491;41.942;24.220;2023-06-26T09:57:10;7.78;;;4.78;;
22648;SDS011;11491;41.942;24.220;2023-06-26T09:59:39;7.55;;;4.53;;
22648;SDS011;11491;41.942;24.220;2023-06-26T10:02:07;7.57;;;5.03;;
22648;SDS011;11491;41.942;24.220;2023-06-26T10:04:35;6.68;;;4.43;;
22648;SDS011;11491;41.942;24.220;2023-06-26T10:07:04;6.65;;;4.75;;
22648;SDS011;11491;41.942;24.220;2023-06-26T10:09:32;6.95;;;4.63;;
22648;SDS011;11491;41.942;24.220;2023-06-26T10:12:05;6.25;;;5.03;;
22648;SDS011;11491;41.942;24.220;2023-06-26T10:14:36;8.85;;;4.93;;
22648;SDS011;11491;41.942;24.220;2023-06-26T10:17:06;8.23;;;4.85;;
22648;SDS011;11491;41.942;24.220;2023-06-26T10:19:39;9.43;;;5.47;;
22648;SDS011;11491;41.942;24.220;2023-06-26T10:22:09;7.53;;;5.30;;
22648;SDS011;11491;41.942;24.220;2023-06-26T10:24:41;8.13;;;5.05;;
22648;SDS011;11491;41.942;24.220;2023-06-26T10:27:08;8.35;;;6.20;;
22648;SDS011;11491;41.942;24.220;2023-06-26T10:29:40;9.07;;;4.85;;
22648;SDS011;11491;41.942;24.220;2023-06-26T10:32:11;5.80;;;4.63;;
22648;SDS011;11491;41.942;24.220;2023-06-26T10:34:40;7.03;;;4.70;;
22648;SDS011;11491;41.942;24.220;2023-06-26T10:37:07;8.88;;;4.78;;
22648;SDS011;11491;41.942;24.220;2023-06-26T10:39:45;8.48;;;4.80;;
22648;SDS011;11491;41.942;24.220;2023-06-26T10:42:14;8.05;;;4.85;;
22648;SDS011;11491;41.942;24.220;2023-06-26T10:44:42;9.02;;;4.75;;
22648;SDS011;11491;41.942;24.220;2023-06-26T10:47:09;7.45;;;4.28;;
22648;SDS011;11491;41.942;24.220;2023-06-26T10:49:38;6.65;;;4.53;;
22648;SDS011;11491;41.942;24.220;2023-06-26T10:52:13;10.23;;;6.10;;
22648;SDS011;11491;41.942;24.220;2023-06-26T10:54:39;8.18;;;5.28;;
22648;SDS011;11491;41.942;24.220;2023-06-26T10:57:07;9.18;;;4.68;;
22648;SDS011;11491;41.942;24.220;2023-06-26T10:59:33;7.97;;;4.50;;
22648;SDS011;11491;41.942;24.220;2023-06-26T11:02:00;5.68;;;4.03;;
22648;SDS011;11491;41.942;24.220;2023-06-26T11:04:37;8.23;;;5.35;;
22648;SDS011;11491;41.942;24.220;2023-06-26T11:07:16;7.53;;;4.72;;
22648;SDS011;11491;41.942;24.220;2023-06-26T11:09:54;5.95;;;4.18;;
22648;SDS011;11491;41.942;24.220;2023-06-26T11:12:37;7.53;;;4.50;;
22648;SDS011;11491;41.942;24.220;2023-06-26T11:15:07;7.47;;;4.35;;
22648;SDS011;11491;41.942;24.220;2023-06-26T11:17:35;7.03;;;4.10;;
22648;SDS011;11491;41.942;24.220;2023-06-26T11:20:04;7.05;;;4.55;;
22648;SDS011;11491;41.942;24.220;2023-06-26T11:22:34;5.03;;;4.03;;
22648;SDS011;11491;41.942;24.220;2023-06-26T11:25:02;8.45;;;4.47;;
22648;SDS011;11491;41.942;24.220;2023-06-26T11:27:31;7.25;;;4.35;;
22648;SDS011;11491;41.942;24.220;2023-06-26T11:29:58;6.05;;;4.40;;
22648;SDS011;11491;41.942;24.220;2023-06-26T11:32:26;6.85;;;4.68;;
22648;SDS011;11491;41.942;24.220;2023-06-26T11:34:54;7.32;;;4.90;;
22648;SDS011;11491;41.942;24.220;2023-06-26T11:37:22;6.22;;;4.43;;
22648;SDS011;11491;41.942;24.220;2023-06-26T11:39:49;9.38;;;5.10;;
22648;SDS011;11491;41.942;24.220;2023-06-26T11:42:15;7.28;;;4.38;;
22648;SDS011;11491;41.942;24.220;2023-06-26T11:44:42;7.30;;;4.45;;
22648;SDS011;11491;41.942;24.220;2023-06-26T11:47:13;6.05;;;4.25;;
22648;SDS011;11491;41.942;24.220;2023-06-26T11:49:44;7.50;;;4.00;;
22648;SDS011;11491;41.942;24.220;2023-06-26T11:52:12;5.63;;;4.65;;
22648;SDS011;11491;41.942;24.220;2023-06-26T11:54:41;7.43;;;4.90;;
22648;SDS011;11491;41.942;24.220;2023-06-26T11:57:12;9.52;;;5.40;;
22648;SDS011;11491;41.942;24.220;2023-06-26T11:59:40;6.50;;;4.95;;
22648;SDS011;11491;41.942;24.220;2023-06-26T12:02:07;9.95;;;5.28;;
22648;SDS011;11491;41.942;24.220;2023-06-26T12:04:35;8.02;;;5.53;;
22648;SDS011;11491;41.942;24.220;2023-06-26T12:07:04;9.27;;;5.80;;
22648;SDS011;11491;41.942;24.220;2023-06-26T12:09:34;7.95;;;5.38;;
22648;SDS011;11491;41.942;24.220;2023-06-26T12:12:05;7.78;;;5.72;;
22648;SDS011;11491;41.942;24.220;2023-06-26T12:14:33;6.80;;;5.47;;
22648;SDS011;11491;41.942;24.220;2023-06-26T12:17:04;6.72;;;5.18;;
22648;SDS011;11491;41.942;24.220;2023-06-26T12:19:33;6.27;;;5.37;;
22648;SDS011;11491;41.942;24.220;2023-06-26T12:22:05;6.85;;;5.72;;
22648;SDS011;11491;41.942;24.220;2023-06-26T12:24:33;5.95;;;5.10;;
22648;SDS011;11491;41.942;24.220;2023-06-26T12:27:02;6.13;;;5.50;;
22648;SDS011;11491;41.942;24.220;2023-06-26T12:29:31;7.10;;;5.63;;
22648;SDS011;11491;41.942;24.220;2023-06-26T12:31:59;9.25;;;5.30;;
22648;SDS011;11491;41.942;24.220;2023-06-26T12:34:27;6.40;;;5.45;;
22648;SDS011;11491;41.942;24.220;2023-06-26T12:36:59;9.63;;;5.60;;
22648;SDS011;11491;41.942;24.220;2023-06-26T12:39:28;7.65;;;4.50;;
22648;SDS011;11491;41.942;24.220;2023-06-26T12:41:57;6.72;;;5.10;;
22648;SDS011;11491;41.942;24.220;2023-06-26T12:44:26;8.32;;;4.85;;
22648;SDS011;11491;41.942;24.220;2023-06-26T12:46:56;9.00;;;4.65;;
22648;SDS011;11491;41.942;24.220;2023-06-26T12:49:33;5.88;;;4.70;;
22648;SDS011;11491;41.942;24.220;2023-06-26T12:52:02;6.78;;;4.70;;
22648;SDS011;11491;41.942;24.220;2023-06-26T12:54:30;7.93;;;5.25;;
22648;SDS011;11491;41.942;24.220;2023-06-26T12:56:57;6.50;;;4.65;;
22648;SDS011;11491;41.942;24.220;2023-06-26T12:59:24;9.40;;;5.22;;
22648;SDS011;11491;41.942;24.220;2023-06-26T13:01:51;7.30;;;5.13;;
22648;SDS011;11491;41.942;24.220;2023-06-26T13:04:19;7.13;;;4.40;;
22648;SDS011;11491;41.942;24.220;2023-06-26T13:06:46;9.23;;;4.43;;
22648;SDS011;11491;41.942;24.220;2023-06-26T13:09:13;5.93;;;3.83;;
22648;SDS011;11491;41.942;24.220;2023-06-26T13:12:44;7.60;;;3.97;;
22648;SDS011;11491;41.942;24.220;2023-06-26T13:15:11;5.60;;;3.70;;
22648;SDS011;11491;41.942;24.220;2023-06-26T13:17:37;7.53;;;4.18;;
22648;SDS011;11491;41.942;24.220;2023-06-26T13:20:05;6.22;;;3.83;;
22648;SDS011;11491;41.942;24.220;2023-06-26T13:22:33;4.72;;;3.65;;
22648;SDS011;11491;41.942;24.220;2023-06-26T13:25:00;5.05;;;3.92;;
22648;SDS011;11491;41.942;24.220;2023-06-26T13:27:26;8.40;;;4.10;;
22648;SDS011;11491;41.942;24.220;2023-06-26T13:29:55;6.53;;;4.40;;
22648;SDS011;11491;41.942;24.220;2023-06-26T13:32:21;5.63;;;3.92;;
22648;SDS011;11491;41.942;24.220;2023-06-26T13:34:49;6.43;;;3.55;;
22648;SDS011;11491;41.942;24.220;2023-06-26T13:37:17;6.22;;;4.05;;
22648;SDS011;11491;41.942;24.220;2023-06-26T13:39:44;5.05;;;3.30;;
22648;SDS011;11491;41.942;24.220;2023-06-26T13:42:14;7.50;;;3.90;;
22648;SDS011;11491;41.942;24.220;2023-06-26T13:44:41;7.75;;;3.80;;
22648;SDS011;11491;41.942;24.220;2023-06-26T13:47:12;5.35;;;3.70;;
22648;SDS011;11491;41.942;24.220;2023-06-26T13:49:40;5.70;;;4.20;;
22648;SDS011;11491;41.942;24.220;2023-06-26T13:52:07;4.18;;;3.22;;
22648;SDS011;11491;41.942;24.220;2023-06-26T13:54:34;4.72;;;3.83;;
22648;SDS011;11491;41.942;24.220;2023-06-26T13:57:00;8.25;;;3.30;;
22648;SDS011;11491;41.942;24.220;2023-06-26T13:59:36;5.93;;;3.72;;
22648;SDS011;11491;41.942;24.220;2023-06-26T14:02:04;6.13;;;3.15;;
22648;SDS011;11491;41.942;24.220;2023-06-26T14:04:32;8.70;;;4.47;;
22648;SDS011;11491;41.942;24.220;2023-06-26T14:06:59;9.95;;;5.15;;
22648;SDS011;11491;41.942;24.220;2023-06-26T14:09:26;8.45;;;4.88;;
22648;SDS011;11491;41.942;24.220;2023-06-26T14:11:53;7.25;;;4.38;;
22648;SDS011;11491;41.942;24.220;2023-06-26T14:14:20;5.38;;;4.25;;
22648;SDS011;11491;41.942;24.220;2023-06-26T14:16:46;8.18;;;4.75;;
22648;SDS011;11491;41.942;24.220;2023-06-26T14:19:14;6.50;;;4.15;;
22648;SDS011;11491;41.942;24.220;2023-06-26T14:21:45;9.63;;;5.40;;
22648;SDS011;11491;41.942;24.220;2023-06-26T14:24:11;7.68;;;4.65;;
22648;SDS011;11491;41.942;24.220;2023-06-26T14:26:38;5.35;;;4.22;;
22648;SDS011;11491;41.942;24.220;2023-06-26T14:29:05;6.20;;;4.40;;
22648;SDS011;11491;41.942;24.220;2023-06-26T14:31:32;5.90;;;4.00;;